Bei Facebook empfehlenBei Twitter postenGoogle plusPinterest

Das Wetter im Erzgebirge am 10.07.2016

Wetter und Klima am 10.07.2016 Holzhau im Erzgebirge (630m ü.NN)
Letzte gemessene Temperatur und Uhrzeit der Messung23:45:00 Uhr16.60 °C
Temperatur (Maximum / Höchstwert) und Uhrzeit der Messung16:15:00 Uhr27.40 °C
Temperatur (Minimum / Tiefstwert) und Uhrzeit der Messung02:30:0010.40 °C
Errechneter Absolutwert der Temperaturschwankungen zwischen Tmin und Tmax des Tages17.00 K
Errechnete Tagesmitteltemperatur19.72813 °C
Gesamt - Niederschlag des Tages (in flüssiger Form)0.00 Liter / m²
Luftdruck (Maximum / Höchstwert) und Zeitpunkt der Messung00:30:00 Uhr1015.80 hPa
Luftdruck (Minimum / Tiefstwert) und Zeitpunkt der Messung23:45:00 Uhr1010.20 hPa
Errechneter Absolutwert der Luftdruckschwankungen des Tages5.60 hPa
Höchste gemessene Windgeschwindigkeit und Uhrzeit der Messung23:45:00 Uhr0.00 km/h
Errechnete Windhäufigkeit in Relation zu den Messwerten des Tages0.00000 %
Niedrigste Windkühle (Windchill) und Zeitpunkt der Messung02:30:00 Uhr10.40 °C
Taupunkt (Maximum / Höchstwert) und Uhrzeit der Messung17:15:00 Uhr17.30 °C
Taupunkt (Minimum / Tiefstwert) und Uhrzeit der Messung01:30:008.20 °C
Anzahl der automatisch eingelesenen Messwerte 96

Detaillierte Wetter- und Klima- Messwerte für den 10.07.2016 in Holzhau im Erzgebirge (630m ü.NN)
ZeitTemperaturLuftdruckRel. LuftfeuchteWindWindrichtungWindchillTaupunktNiederschlag l/m²
23:45:0016.60 °C1010.20 hPa81.00 %13.30 °C 
23:30:0016.80 °C1010.40 hPa80.00 %13.30 °C 
23:15:0017.00 °C1010.40 hPa80.00 %13.50 °C 
23:00:0017.30 °C1010.60 hPa79.00 %13.60 °C 
22:45:0017.30 °C1010.50 hPa78.00 %13.40 °C 
22:30:0017.40 °C1010.60 hPa78.00 %13.50 °C 
22:15:0017.80 °C1010.60 hPa76.00 %13.50 °C 
22:00:0018.00 °C1010.50 hPa74.00 %13.30 °C 
21:45:0018.50 °C1010.50 hPa73.00 %13.60 °C 
21:30:0019.30 °C1010.70 hPa71.00 %13.90 °C 
21:15:0020.30 °C1010.60 hPa68.00 %14.20 °C 
21:00:0021.40 °C1010.70 hPa66.00 %14.80 °C 
20:45:0022.40 °C1010.70 hPa63.00 %15.00 °C 
20:30:0023.60 °C1010.80 hPa60.00 %15.40 °C 
20:15:0024.70 °C1010.80 hPa58.00 %15.90 °C 
20:00:0025.50 °C1010.90 hPa56.00 %16.10 °C 
19:45:0025.90 °C1011.00 hPa55.00 %16.20 °C 
19:30:0025.90 °C1011.10 hPa56.00 %16.50 °C 
19:15:0025.40 °C1011.20 hPa57.00 %16.30 °C 
19:00:0025.90 °C1011.40 hPa55.00 %16.20 °C 
18:45:0026.40 °C1011.40 hPa55.00 %16.60 °C 
18:30:0026.60 °C1011.50 hPa56.00 %17.10 °C 
18:15:0026.40 °C1011.60 hPa55.00 %16.60 °C 
18:00:0026.30 °C1011.80 hPa56.00 %16.80 °C 
17:45:0026.50 °C1012.10 hPa56.00 %17.00 °C 
17:30:0026.80 °C1012.10 hPa55.00 %17.00 °C 
17:15:0027.10 °C1012.30 hPa55.00 %17.30 °C 
17:00:0026.90 °C1012.50 hPa55.00 %17.10 °C 
16:45:0027.20 °C1012.70 hPa54.00 %17.10 °C 
16:30:0027.30 °C1012.70 hPa54.00 %17.20 °C 
16:15:0027.40 °C1012.90 hPa54.00 %17.30 °C 
16:00:0027.40 °C1012.90 hPa53.00 %17.00 °C 
15:45:0027.30 °C1013.10 hPa54.00 %17.20 °C 
15:30:0027.20 °C1013.10 hPa54.00 %17.10 °C 
15:15:0027.00 °C1013.20 hPa54.00 %16.90 °C 
15:00:0026.60 °C1013.30 hPa56.00 %17.10 °C 
14:45:0026.30 °C1013.20 hPa56.00 %16.80 °C 
14:30:0026.00 °C1013.50 hPa57.00 %16.80 °C 
14:15:0025.40 °C1013.40 hPa59.00 %16.80 °C 
14:00:0024.80 °C1013.90 hPa59.00 %16.20 °C 
13:45:0024.70 °C1014.00 hPa58.00 %15.90 °C 
13:30:0025.30 °C1013.90 hPa57.00 %16.20 °C 
13:15:0025.90 °C1013.90 hPa59.00 %17.30 °C 
13:00:0025.30 °C1013.90 hPa60.00 %17.00 °C 
12:45:0025.30 °C1013.90 hPa61.00 %17.20 °C 
12:30:0024.90 °C1014.20 hPa61.00 %16.90 °C 
12:15:0024.70 °C1014.20 hPa62.00 %16.90 °C 
12:00:0024.40 °C1014.30 hPa61.00 %16.40 °C 
11:45:0024.80 °C1014.40 hPa61.00 %16.80 °C 
11:30:0024.80 °C1014.30 hPa61.00 %16.80 °C 
11:15:0024.90 °C1014.30 hPa61.00 %16.90 °C 
11:00:0024.60 °C1014.40 hPa60.00 %16.30 °C 
10:45:0024.30 °C1014.60 hPa62.00 %16.60 °C 
10:30:0024.20 °C1014.40 hPa64.00 %17.00 °C 
10:15:0023.80 °C1014.70 hPa65.00 %16.80 °C 
10:00:0023.20 °C1014.70 hPa66.00 %16.50 °C 
09:45:0022.60 °C1014.90 hPa66.00 %15.90 °C 
09:30:0022.60 °C1014.90 hPa67.00 %16.20 °C 
09:15:0022.30 °C1015.00 hPa69.00 %16.30 °C 
09:00:0022.20 °C1015.10 hPa69.00 %16.20 °C 
08:45:0021.80 °C1015.00 hPa70.00 %16.10 °C 
08:30:0021.70 °C1015.00 hPa69.00 %15.80 °C 
08:15:0022.10 °C1014.80 hPa72.00 %16.80 °C 
08:00:0021.10 °C1014.90 hPa76.00 %16.70 °C 
07:45:0019.60 °C1014.90 hPa81.00 %16.30 °C 
07:30:0017.80 °C1015.00 hPa86.00 %15.40 °C 
07:15:0014.50 °C1015.00 hPa90.00 %12.90 °C 
07:00:0013.00 °C1015.10 hPa90.00 %11.40 °C 
06:45:0012.60 °C1015.10 hPa90.00 %11.00 °C 
06:30:0011.90 °C1015.20 hPa90.00 %10.30 °C 
06:15:0011.30 °C1015.10 hPa90.00 %9.70 °C 
06:00:0010.90 °C1015.10 hPa89.00 %9.20 °C 
05:45:0010.80 °C1015.00 hPa89.00 %9.10 °C 
05:30:0010.70 °C1015.00 hPa88.00 %8.80 °C 
05:15:0010.90 °C1014.90 hPa88.00 %9.00 °C 
05:00:0011.30 °C1015.00 hPa89.00 %9.60 °C 
04:45:0011.30 °C1014.80 hPa89.00 %9.60 °C 
04:30:0010.90 °C1015.10 hPa88.00 %9.00 °C 
04:15:0010.90 °C1015.10 hPa88.00 %9.00 °C 
04:00:0011.20 °C1015.20 hPa87.00 %9.10 °C 
03:45:0011.30 °C1015.10 hPa87.00 %9.20 °C 
03:30:0011.40 °C1015.30 hPa88.00 %9.50 °C 
03:15:0011.30 °C1015.20 hPa88.00 %9.40 °C 
03:00:0011.10 °C1015.30 hPa88.00 %9.20 °C 
02:45:0010.80 °C1015.30 hPa88.00 %8.90 °C 
02:30:0010.40 °C1015.50 hPa87.00 %8.30 °C 
02:15:0010.40 °C1015.40 hPa87.00 %8.30 °C 
02:00:0010.40 °C1015.50 hPa87.00 %8.30 °C 
01:45:0010.40 °C1015.50 hPa87.00 %8.30 °C 
01:30:0010.40 °C1015.60 hPa86.00 %8.20 °C 
01:15:0010.60 °C1015.60 hPa86.00 %8.40 °C 
01:00:0010.60 °C1015.70 hPa85.00 %8.20 °C 
00:45:0010.80 °C1015.70 hPa85.00 %8.40 °C 
00:30:0010.90 °C1015.80 hPa85.00 %8.50 °C 
00:15:0011.00 °C1015.80 hPa84.00 %8.40 °C 
00:00:0011.10 °C1015.80 hPa83.00 %8.30 °C 

Permanenter Link zu dieser Seite: Wetter im Erzgebirge am 10.07.2016
Performance-Info: Die Erstellung der Seite / Statistik(en) / Tabelle(n) erforderte 5 Datenbankserver-Abfrage(n) und dauerte 97 Millisekunden. (Dieser Messwert ist von der Gesamt-Auslastung des Servers abhängig.)
Erzgebirge - Wetter | Erzgebirge - Wetter (Mobilgeräte) | Komplette Klimadatenbank